Time;durP1;ratioP1;P1;durP2;ratioP2;P2;SDS_P1;SDS_P2;PMS_P1;PMS_P2;Temp;Humidity;BMP_temperature;BMP_pressure;BME280_temperature;BME280_humidity;BME280_pressure;Samples;Min_cycle;Max_cycle;Signal;HPM_P1;HPM_P2
2021/10/26 00:01:34;;;;;;;30.62;14.80;;;;;;;2.96;64.78;101262.15;1645066;85;21052;-71
2021/10/26 00:04:01;;;;;;;21.50;12.82;;;;;;;2.95;64.84;101263.14;1663585;85;22145;-69
2021/10/26 00:06:27;;;;;;;18.55;13.25;;;;;;;2.92;64.89;101263.47;1662537;85;21027;-70
2021/10/26 00:08:55;;;;;;;20.15;12.90;;;;;;;2.91;64.97;101264.95;1671216;85;20996;-70
2021/10/26 00:11:22;;;;;;;26.17;15.75;;;;;;;2.90;65.12;101253.48;1642260;86;21092;-70
2021/10/26 00:13:48;;;;;;;21.62;13.20;;;;;;;2.86;65.25;101253.48;1626634;87;21041;-70
2021/10/26 00:16:14;;;;;;;25.17;15.18;;;;;;;2.84;65.39;101247.48;1612499;89;21739;-69
2021/10/26 00:18:41;;;;;;;24.67;14.78;;;;;;;2.80;65.54;101247.47;1607953;87;21023;-74
2021/10/26 00:21:08;;;;;;;30.25;15.30;;;;;;;2.76;65.79;101248.80;1672016;85;21088;-73
2021/10/26 00:23:34;;;;;;;30.15;16.30;;;;;;;2.74;65.74;101252.59;1672643;85;21022;-72
2021/10/26 00:26:03;;;;;;;23.10;12.37;;;;;;;2.78;65.67;101249.45;1644872;85;21626;-75
2021/10/26 00:28:29;;;;;;;21.90;15.88;;;;;;;2.75;65.83;101248.45;1653241;85;21243;-73
2021/10/26 00:30:55;;;;;;;23.50;13.85;;;;;;;2.69;66.07;101239.78;1672540;85;20957;-71
2021/10/26 00:33:23;;;;;;;22.15;13.05;;;;;;;2.64;66.29;101241.59;1643734;85;20982;-70
2021/10/26 00:35:49;;;;;;;17.67;12.95;;;;;;;2.61;66.42;101239.27;1645067;85;21551;-71
2021/10/26 00:38:18;;;;;;;21.82;14.53;;;;;;;2.59;66.55;101233.28;1672417;85;21022;-69
2021/10/26 00:40:46;;;;;;;22.35;14.30;;;;;;;2.57;66.54;101229.13;1644793;85;21111;-70
2021/10/26 00:43:12;;;;;;;23.25;14.63;;;;;;;2.52;66.89;101222.14;1671972;85;20962;-68
2021/10/26 00:45:39;;;;;;;19.98;13.00;;;;;;;2.52;66.86;101228.28;1636188;85;21113;-68
2021/10/26 00:48:06;;;;;;;25.65;13.90;;;;;;;2.56;66.75;101224.80;1663422;85;21588;-69
2021/10/26 00:50:32;;;;;;;28.02;14.53;;;;;;;2.55;66.77;101222.64;1653367;86;21012;-69
2021/10/26 00:52:59;;;;;;;23.25;14.58;;;;;;;2.56;66.76;101217.67;1672463;85;21212;-70
2021/10/26 00:55:26;;;;;;;20.65;12.63;;;;;;;2.60;66.73;101211.05;1672810;85;20997;-70
2021/10/26 00:57:53;;;;;;;24.67;15.35;;;;;;;2.63;66.59;101213.40;1653264;85;20965;-69
2021/10/26 01:00:20;;;;;;;21.85;14.20;;;;;;;2.61;66.55;101211.88;1672755;85;21036;-70
2021/10/26 01:02:47;;;;;;;21.07;13.75;;;;;;;2.62;66.50;101205.09;1653041;85;21020;-71
2021/10/26 01:05:15;;;;;;;29.07;16.15;;;;;;;2.67;66.44;101214.39;1659481;85;21271;-70
2021/10/26 01:07:42;;;;;;;22.55;14.35;;;;;;;2.66;66.36;101211.39;1663107;85;21009;-69
2021/10/26 01:10:09;;;;;;;24.47;14.03;;;;;;;2.67;66.31;101205.93;1642162;85;21512;-79
2021/10/26 01:12:37;;;;;;;20.52;13.93;;;;;;;2.72;66.10;101208.94;1642246;86;21191;-77
2021/10/26 01:15:06;;;;;;;27.55;14.55;;;;;;;2.72;66.04;101216.91;1627039;85;21564;-80
2021/10/26 01:17:34;;;;;;;20.95;13.03;;;;;;;2.69;66.08;101212.39;1673160;85;20994;-79
2021/10/26 01:20:01;;;;;;;28.05;17.40;;;;;;;2.67;66.08;101211.25;1645235;85;21001;-80
2021/10/26 01:22:29;;;;;;;24.27;14.43;;;;;;;2.69;66.08;101215.05;1672933;85;20953;-81
2021/10/26 01:24:56;;;;;;;22.85;13.28;;;;;;;2.69;66.03;101216.37;1672480;85;21028;-81
2021/10/26 01:27:23;;;;;;;20.08;13.55;;;;;;;2.70;65.96;101210.91;1672532;85;21037;-86
2021/10/26 01:29:52;;;;;;;19.30;13.45;;;;;;;2.68;65.96;101207.60;1673573;85;21111;-87
2021/10/26 01:32:21;;;;;;;26.68;15.53;;;;;;;2.65;65.99;101206.58;1674759;85;20978;-84
2021/10/26 01:34:49;;;;;;;21.25;13.78;;;;;;;2.65;65.99;101199.94;1653400;85;21073;-85
2021/10/26 01:37:17;;;;;;;22.75;13.55;;;;;;;2.66;65.97;101195.45;1654426;85;21006;-81
2021/10/26 01:39:44;;;;;;;22.62;13.60;;;;;;;2.66;65.95;101204.75;1679569;85;20986;-78
2021/10/26 01:42:10;;;;;;;21.60;14.68;;;;;;;2.66;65.94;101199.44;1674231;85;21906;-73
2021/10/26 01:44:38;;;;;;;30.82;15.90;;;;;;;2.62;65.92;101202.44;1684551;84;20980;-74
2021/10/26 01:47:06;;;;;;;25.48;14.60;;;;;;;2.62;65.90;101201.59;1672850;85;21533;-71
2021/10/26 01:49:34;;;;;;;24.05;14.35;;;;;;;2.63;65.91;101197.95;1665959;85;21028;-73
2021/10/26 01:52:01;;;;;;;24.75;13.15;;;;;;;2.64;65.83;101200.43;1670634;85;21057;-76
2021/10/26 01:54:29;;;;;;;20.08;13.30;;;;;;;2.67;65.77;101199.78;1673853;85;22339;-76
2021/10/26 01:56:56;;;;;;;24.33;13.93;;;;;;;2.63;65.79;101200.61;1589623;89;20998;-77
2021/10/26 01:59:24;;;;;;;22.20;14.28;;;;;;;2.60;65.82;101197.77;1667230;85;21043;-77
2021/10/26 02:01:50;;;;;;;19.85;11.78;;;;;;;2.59;65.87;101204.06;1600996;88;21028;-77
2021/10/26 02:04:25;;;;;;;22.58;13.50;;;;;;;2.59;65.93;101200.08;1626480;88;21559;-73
2021/10/26 02:06:52;;;;;;;19.73;12.93;;;;;;;2.57;65.97;101197.27;1619096;88;21171;-72
2021/10/26 02:09:19;;;;;;;19.85;13.68;;;;;;;2.56;66.02;101199.08;1679062;85;21085;-74
2021/10/26 02:11:47;;;;;;;22.70;14.13;;;;;;;2.54;66.07;101195.74;1680910;85;21025;-74
2021/10/26 02:14:13;;;;;;;27.67;13.48;;;;;;;2.57;66.11;101194.11;1650239;85;21037;-75
2021/10/26 02:16:40;;;;;;;28.27;14.18;;;;;;;2.57;66.04;101194.11;1682433;84;21017;-76
2021/10/26 02:19:09;;;;;;;23.07;14.45;;;;;;;2.57;66.06;101194.11;1676052;84;21061;-76
2021/10/26 02:21:37;;;;;;;23.90;14.70;;;;;;;2.52;66.19;101188.94;1680580;84;21536;-77
2021/10/26 02:24:03;;;;;;;29.15;15.18;;;;;;;2.47;66.35;101184.12;1680645;85;21540;-77
2021/10/26 02:26:32;;;;;;;22.52;14.25;;;;;;;2.48;66.37;101190.27;1659079;85;21001;-78
2021/10/26 02:28:58;;;;;;;16.77;12.28;;;;;;;2.47;66.45;101181.46;1676895;84;20945;-78
2021/10/26 02:31:24;;;;;;;21.52;14.47;;;;;;;2.45;66.59;101179.94;1650208;85;21109;-76
2021/10/26 02:33:51;;;;;;;26.17;14.38;;;;;;;2.36;66.83;101176.44;1680860;85;21100;-76
2021/10/26 02:36:17;;;;;;;21.15;14.78;;;;;;;2.28;67.03;101177.73;1650318;85;20981;-75
2021/10/26 02:38:44;;;;;;;20.27;14.78;;;;;;;2.29;67.07;101171.94;1682496;85;21517;-75
2021/10/26 02:41:11;;;;;;;24.43;15.50;;;;;;;2.31;67.13;101172.09;1650092;85;21553;-76
2021/10/26 02:43:37;;;;;;;22.95;14.90;;;;;;;2.35;67.10;101168.65;1681603;84;21178;-76
2021/10/26 02:46:04;;;;;;;19.77;12.03;;;;;;;2.36;67.08;101176.44;1682462;84;21112;-75
2021/10/26 02:48:30;;;;;;;21.27;12.90;;;;;;;2.33;67.17;101168.80;1627048;85;21014;-74
2021/10/26 02:50:58;;;;;;;22.48;13.68;;;;;;;2.28;67.40;101165.79;1682651;84;21541;-76
2021/10/26 02:53:25;;;;;;;22.65;14.30;;;;;;;2.25;67.42;101170.11;1684298;84;21032;-76
2021/10/26 02:55:51;;;;;;;21.85;15.18;;;;;;;2.25;67.48;101169.27;1656221;85;21045;-76
2021/10/26 02:58:19;;;;;;;22.87;15.50;;;;;;;2.18;67.67;101162.43;1681166;85;20992;-76
2021/10/26 03:00:46;;;;;;;24.47;14.98;;;;;;;2.08;67.93;101167.02;1682875;85;21138;-76
2021/10/26 03:03:13;;;;;;;37.95;19.00;;;;;;;2.07;68.07;101162.20;1687300;85;21071;-78
2021/10/26 03:05:40;;;;;;;29.70;18.27;;;;;;;2.03;68.31;101154.72;1687548;85;21028;-77
2021/10/26 03:08:06;;;;;;;26.40;16.27;;;;;;;2.03;68.41;101155.56;1684617;85;21758;-77
2021/10/26 03:10:33;;;;;;;28.65;16.75;;;;;;;2.04;68.40;101157.72;1651534;85;21517;-77
2021/10/26 03:12:59;;;;;;;21.12;14.35;;;;;;;1.98;68.86;101152.55;1688761;85;20996;-78
2021/10/26 03:15:27;;;;;;;33.80;16.32;;;;;;;1.94;68.93;101159.66;1657290;85;21574;-80
2021/10/26 03:17:57;;;;;;;26.33;15.23;;;;;;;1.89;69.09;101157.97;1682010;85;21559;-76
2021/10/26 03:20:23;;;;;;;27.33;16.43;;;;;;;1.88;69.17;101153.65;1646483;86;22125;-78
2021/10/26 03:22:50;;;;;;;26.87;16.23;;;;;;;1.87;69.29;101150.68;1659560;86;20940;-76
2021/10/26 03:25:18;;;;;;;27.35;16.62;;;;;;;1.81;69.47;101149.98;1677422;85;21077;-78
2021/10/26 03:27:44;;;;;;;26.17;15.50;;;;;;;1.75;69.64;101149.61;1687243;85;21063;-78
2021/10/26 03:30:14;;;;;;;26.67;15.97;;;;;;;1.71;69.95;101148.77;1683181;85;21055;-78
2021/10/26 03:32:41;;;;;;;27.80;17.70;;;;;;;1.67;70.08;101147.41;1687377;85;21012;-78
2021/10/26 03:35:25;;;;;;;27.53;17.70;;;;;;;1.66;70.25;101141.77;1685851;85;21042;-78
2021/10/26 03:37:52;;;;;;;27.47;16.40;;;;;;;1.63;70.41;101140.77;1689076;85;21095;-76
2021/10/26 03:40:19;;;;;;;27.60;16.60;;;;;;;1.60;70.58;101144.55;1660455;85;21061;-77
2021/10/26 03:42:46;;;;;;;27.93;16.37;;;;;;;1.57;70.70;101144.03;1677495;85;21111;-78
2021/10/26 03:45:12;;;;;;;31.87;18.43;;;;;;;1.57;70.73;101142.70;1682012;85;21159;-79
2021/10/26 03:47:44;;;;;;;28.83;15.40;;;;;;;1.58;70.83;101138.55;1687850;83;22207;-76
2021/10/26 03:50:12;;;;;;;24.30;15.03;;;;;;;1.55;71.05;101138.04;1687645;85;20968;-82
2021/10/26 03:52:38;;;;;;;26.83;16.67;;;;;;;1.52;71.15;101143.66;1687346;85;21053;-80
2021/10/26 03:55:06;;;;;;;25.03;16.27;;;;;;;1.47;71.42;101132.20;1664966;84;21012;-77
2021/10/26 03:57:34;;;;;;;22.67;17.27;;;;;;;1.47;71.34;101129.55;1672509;84;21088;-76
2021/10/26 04:00:01;;;;;;;24.50;15.50;;;;;;;1.53;71.27;101134.24;1672540;84;21087;-78
2021/10/26 04:02:30;;;;;;;24.80;16.33;;;;;;;1.53;71.33;101130.75;1672878;84;20997;-82
2021/10/26 04:05:05;;;;;;;25.07;16.40;;;;;;;1.51;71.41;101130.90;1672482;84;21098;-79
2021/10/26 04:07:25;;;;;;;30.70;17.83;;;;;;;1.49;71.44;101122.75;1681635;85;21060;-80
2021/10/26 04:09:58;;;;;;;26.70;18.67;;;;;;;1.49;71.43;101122.75;1653937;85;21110;-85
2021/10/26 04:12:25;;;;;;;30.17;18.00;;;;;;;1.47;71.60;101133.53;1674056;85;21095;-73
2021/10/26 04:14:54;;;;;;;25.03;15.90;;;;;;;1.45;71.65;101132.00;1679726;85;20973;-74
2021/10/26 04:17:23;;;;;;;26.73;16.90;;;;;;;1.41;71.80;101124.86;1678004;85;21044;-74
2021/10/26 04:19:50;;;;;;;24.67;17.43;;;;;;;1.38;71.99;101127.00;1637803;85;21016;-76
2021/10/26 04:22:20;;;;;;;34.90;19.77;;;;;;;1.35;72.01;101128.62;1677938;85;21419;-74
2021/10/26 04:24:46;;;;;;;32.93;20.57;;;;;;;1.36;72.09;101131.13;1678242;85;20967;-73
2021/10/26 04:27:12;;;;;;;38.53;22.07;;;;;;;1.36;72.16;101131.61;1658738;85;22268;-73
2021/10/26 04:29:39;;;;;;;34.40;23.27;;;;;;;1.31;72.36;101128.10;1672311;85;21005;-76
2021/10/26 04:32:09;;;;;;;34.87;22.27;;;;;;;1.29;72.38;101126.12;1649272;85;21661;-77
2021/10/26 04:34:37;;;;;;;34.17;23.63;;;;;;;1.28;72.47;101140.34;1654128;85;21123;-77
2021/10/26 04:37:06;;;;;;;38.87;24.70;;;;;;;1.28;72.54;101137.70;1653794;85;21010;-76
2021/10/26 04:39:34;;;;;;;42.87;25.70;;;;;;;1.23;72.66;101142.14;1678319;85;21540;-75
2021/10/26 04:42:02;;;;;;;42.07;26.90;;;;;;;1.21;72.76;101134.82;1677951;85;21533;-76
2021/10/26 04:44:29;;;;;;;39.73;25.30;;;;;;;1.15;72.95;101134.10;1683519;85;21216;-75
2021/10/26 04:46:55;;;;;;;41.57;26.70;;;;;;;1.13;73.06;101135.26;1678073;85;21055;-76
2021/10/26 04:49:23;;;;;;;47.80;28.93;;;;;;;1.11;73.25;101141.19;1682941;85;21562;-77
2021/10/26 04:51:49;;;;;;;47.47;33.87;;;;;;;1.05;73.47;101136.03;1653858;85;21005;-75
2021/10/26 04:54:16;;;;;;;42.07;27.30;;;;;;;1.05;73.60;101137.84;1675256;85;21038;-76
2021/10/26 04:56:44;;;;;;;38.93;25.33;;;;;;;1.06;73.59;101139.48;1672594;85;21574;-77
2021/10/26 04:59:28;;;;;;;41.37;25.43;;;;;;;1.08;73.58;101137.53;1672851;85;21790;-77
2021/10/26 05:01:55;;;;;;;37.13;23.97;;;;;;;1.07;73.74;101145.13;1672636;85;21044;-74
2021/10/26 05:04:22;;;;;;;38.10;24.03;;;;;;;1.06;73.83;101138.16;1653221;85;21533;-76
2021/10/26 05:06:50;;;;;;;45.17;23.70;;;;;;;1.07;73.83;101139.83;1653183;85;21060;-76
2021/10/26 05:09:17;;;;;;;32.87;20.53;;;;;;;1.08;73.91;101140.18;1672653;85;20978;-76
2021/10/26 05:11:44;;;;;;;27.93;20.27;;;;;;;1.10;73.90;101145.69;1649901;85;21086;-77
2021/10/26 05:14:11;;;;;;;30.57;20.10;;;;;;;1.10;73.89;101142.20;1626162;86;20948;-78
2021/10/26 05:16:57;;;;;;;33.43;21.17;;;;;;;1.09;73.92;101141.36;1640659;87;21064;-76
2021/10/26 05:19:36;;;;;;;33.03;20.67;;;;;;;1.11;73.99;101147.33;1607797;87;21042;-77
2021/10/26 05:22:24;;;;;;;34.10;24.33;;;;;;;1.14;73.99;101142.23;1626635;87;21014;-76
2021/10/26 05:25:09;;;;;;;33.73;21.07;;;;;;;1.14;74.06;101151.02;1626602;87;21190;-76
2021/10/26 05:27:39;;;;;;;34.97;22.93;;;;;;;1.15;74.07;101152.65;1633013;85;21045;-76
2021/10/26 05:30:06;;;;;;;34.57;21.30;;;;;;;1.18;74.06;101153.69;1645235;85;20992;-74
2021/10/26 05:32:34;;;;;;;39.53;21.73;;;;;;;1.22;74.04;101149.74;1672825;85;20983;-75
2021/10/26 05:35:01;;;;;;;30.83;18.57;;;;;;;1.26;73.96;101140.98;1672674;85;21085;-73
2021/10/26 05:37:27;;;;;;;28.10;19.37;;;;;;;1.33;73.87;101146.02;1672926;85;21609;-74
2021/10/26 05:39:54;;;;;;;30.27;19.27;;;;;;;1.37;73.73;101149.19;1665909;85;20997;-75
2021/10/26 05:42:20;;;;;;;33.17;20.33;;;;;;;1.41;73.68;101150.53;1673077;85;21531;-73
2021/10/26 05:44:47;;;;;;;25.80;18.20;;;;;;;1.49;73.58;101150.58;1673012;85;21089;-75
2021/10/26 05:47:13;;;;;;;26.93;18.47;;;;;;;1.57;73.36;101142.70;1671635;85;21554;-73
2021/10/26 05:49:40;;;;;;;26.00;17.17;;;;;;;1.63;73.15;101142.89;1645385;85;21087;-74
2021/10/26 05:52:07;;;;;;;26.37;17.37;;;;;;;1.69;72.87;101150.72;1672671;85;21045;-73
2021/10/26 05:54:34;;;;;;;27.23;17.53;;;;;;;1.72;72.63;101147.78;1644105;85;21100;-73
2021/10/26 05:57:00;;;;;;;28.97;18.17;;;;;;;1.69;72.56;101150.72;1674605;85;21120;-75
2021/10/26 05:59:27;;;;;;;27.57;18.17;;;;;;;1.67;72.60;101150.06;1674891;85;21077;-74
2021/10/26 06:01:53;;;;;;;23.43;16.57;;;;;;;1.77;72.59;101151.28;1653216;85;21752;-74
2021/10/26 06:04:19;;;;;;;24.37;16.20;;;;;;;1.88;72.40;101162.44;1674318;85;21554;-73
2021/10/26 06:06:46;;;;;;;24.37;16.17;;;;;;;1.95;72.02;101158.19;1643551;86;21616;-77
2021/10/26 06:09:15;;;;;;;22.43;17.20;;;;;;;1.95;71.86;101158.19;1672169;85;21626;-73
2021/10/26 06:11:45;;;;;;;24.37;17.23;;;;;;;1.97;71.69;101158.00;1653234;85;21116;-73
2021/10/26 06:14:11;;;;;;;31.93;16.10;;;;;;;2.00;71.61;101157.70;1676215;85;21159;-73
2021/10/26 06:16:39;;;;;;;24.43;16.03;;;;;;;2.03;71.52;101160.03;1644079;85;20924;-74
2021/10/26 06:19:07;;;;;;;25.67;16.03;;;;;;;2.07;71.34;101158.72;1644493;85;21047;-76
2021/10/26 06:21:35;;;;;;;22.00;16.17;;;;;;;2.17;71.25;101157.61;1674795;85;20922;-77
2021/10/26 06:24:04;;;;;;;20.80;14.73;;;;;;;2.29;71.07;101168.79;1674927;85;21069;-74
2021/10/26 06:26:32;;;;;;;24.13;15.73;;;;;;;2.37;70.69;101167.48;1644424;85;21125;-76
2021/10/26 06:29:07;;;;;;;21.17;14.83;;;;;;;2.45;70.44;101160.03;1657328;85;21056;-77
2021/10/26 06:31:36;;;;;;;25.88;15.85;;;;;;;2.54;70.12;101171.04;1660228;85;21554;-75
2021/10/26 06:34:03;;;;;;;28.02;18.55;;;;;;;2.60;69.76;101159.25;1674653;85;21029;-77
2021/10/26 06:36:31;;;;;;;29.40;17.73;;;;;;;2.66;69.63;101157.78;1640477;86;21008;-74
2021/10/26 06:38:57;;;;;;;29.45;17.15;;;;;;;2.75;69.39;101159.45;1632007;86;22275;-75
2021/10/26 06:41:24;;;;;;;23.80;17.67;;;;;;;2.80;69.23;101161.62;1633329;86;21467;-74
2021/10/26 06:43:52;;;;;;;26.00;15.43;;;;;;;2.88;69.07;101157.64;1657616;86;21039;-85
2021/10/26 06:46:37;;;;;;;26.52;20.30;;;;;;;2.97;68.76;101154.83;1633548;86;21547;-74
2021/10/26 06:49:23;;;;;;;24.35;16.15;;;;;;;3.08;68.36;101149.69;1633476;86;21539;-75
2021/10/26 06:52:08;;;;;;;23.18;15.13;;;;;;;3.19;68.14;101150.70;1640936;85;21305;-76
2021/10/26 06:54:39;;;;;;;24.07;16.48;;;;;;;3.29;67.87;101155.36;1621907;85;20946;-76
2021/10/26 06:57:25;;;;;;;26.65;15.63;;;;;;;3.39;67.83;101157.84;1594920;88;21079;-76
2021/10/26 07:00:12;;;;;;;19.57;13.45;;;;;;;3.49;67.82;101160.67;1651503;86;21577;-74
2021/10/26 07:02:57;;;;;;;18.20;13.35;;;;;;;3.61;67.41;101164.29;1633671;86;21053;-76
2021/10/26 07:05:42;;;;;;;19.55;13.00;;;;;;;3.72;66.93;101154.14;1661179;86;21137;-76
2021/10/26 07:08:26;;;;;;;16.75;11.50;;;;;;;3.83;66.69;101150.30;1657066;86;21530;-76
2021/10/26 07:10:56;;;;;;;23.12;13.45;;;;;;;3.95;66.23;101150.25;1660079;85;21153;-76
2021/10/26 07:13:24;;;;;;;22.75;14.13;;;;;;;4.08;65.83;101150.53;1661103;86;21003;-76
2021/10/26 07:15:51;;;;;;;16.90;12.93;;;;;;;4.19;65.04;101150.17;1639541;86;21075;-76
2021/10/26 07:18:17;;;;;;;15.35;12.53;;;;;;;4.32;64.85;101149.61;1639745;86;21885;-76
2021/10/26 07:20:44;;;;;;;23.52;12.68;;;;;;;4.45;64.22;101143.73;1618017;86;21504;-77
2021/10/26 07:23:15;;;;;;;17.55;10.93;;;;;;;4.55;64.04;101137.69;1643324;85;32792;-76
2021/10/26 07:25:49;;;;;;;15.50;9.90;;;;;;;4.66;64.03;101138.10;1654907;85;21055;-75
2021/10/26 07:28:16;;;;;;;25.90;12.23;;;;;;;4.77;63.63;101128.88;1676868;85;21060;-75
2021/10/26 07:30:46;;;;;;;21.65;12.18;;;;;;;4.88;63.16;101134.31;1598965;88;21137;-78
2021/10/26 07:33:21;;;;;;;15.68;10.55;;;;;;;4.99;62.95;101135.24;1667105;85;20979;-78
2021/10/26 07:35:50;;;;;;;19.50;10.80;;;;;;;5.09;62.43;101143.30;1661161;85;21064;-78
2021/10/26 07:38:29;;;;;;;15.83;10.23;;;;;;;5.17;61.88;101135.27;1661372;85;21075;-75
2021/10/26 07:40:46;;;;;;;20.08;10.55;;;;;;;5.24;61.67;101122.02;1661263;85;21079;-75
2021/10/26 07:43:18;;;;;;;21.00;11.97;;;;;;;5.32;61.75;101139.80;1662046;85;22139;-73
2021/10/26 07:46:04;;;;;;;15.10;10.20;;;;;;;5.40;61.21;101125.88;1661169;86;20957;-74
2021/10/26 07:48:31;;;;;;;16.80;10.40;;;;;;;5.49;60.94;101120.79;1605715;88;21087;-73
2021/10/26 07:50:59;;;;;;;18.12;11.57;;;;;;;5.58;60.65;101141.55;1684345;85;21103;-75
2021/10/26 07:53:27;;;;;;;16.50;10.78;;;;;;;5.66;60.53;101110.77;1689079;84;21013;-76
2021/10/26 07:55:57;;;;;;;20.00;10.78;;;;;;;5.74;60.28;101117.37;1680257;84;21110;-75
2021/10/26 07:58:25;;;;;;;17.48;9.98;;;;;;;5.84;60.15;101115.26;1687536;84;20972;-74
2021/10/26 08:00:53;;;;;;;16.93;10.45;;;;;;;5.92;59.87;101115.69;1649180;86;21536;-77
2021/10/26 08:03:33;;;;;;;11.08;9.10;;;;;;;5.98;59.64;101103.77;1614988;87;21599;-75
2021/10/26 08:06:01;;;;;;;17.85;10.63;;;;;;;6.09;59.26;101120.65;1627486;87;22247;-75
2021/10/26 08:08:28;;;;;;;13.00;9.48;;;;;;;6.17;59.00;101113.05;1618600;87;21171;-76
2021/10/26 08:10:56;;;;;;;14.43;9.08;;;;;;;6.26;58.77;101099.91;1627127;87;21060;-77
2021/10/26 08:13:23;;;;;;;12.33;9.38;;;;;;;6.34;58.38;101105.64;1626992;87;21069;-76
2021/10/26 08:15:51;;;;;;;18.35;9.65;;;;;;;6.41;58.15;101098.05;1661970;86;21576;-75
2021/10/26 08:18:18;;;;;;;9.88;7.45;;;;;;;6.50;58.15;101094.74;1678380;85;21064;-76
2021/10/26 08:20:48;;;;;;;11.97;8.93;;;;;;;6.57;57.47;101104.47;1678374;85;21031;-76
2021/10/26 08:23:17;;;;;;;12.05;8.90;;;;;;;6.65;57.39;101090.17;1658395;85;21489;-80
2021/10/26 08:25:49;;;;;;;12.45;8.48;;;;;;;6.71;57.10;101085.42;1685712;85;20940;-83
2021/10/26 08:28:16;;;;;;;10.43;8.83;;;;;;;6.77;56.72;101093.99;1678204;85;21008;-78
2021/10/26 08:30:56;;;;;;;16.67;11.15;;;;;;;6.83;56.94;101085.22;1653324;86;21533;-78
2021/10/26 08:33:35;;;;;;;12.60;8.88;;;;;;;6.91;57.04;101086.91;1649926;85;21129;-79
2021/10/26 08:35:51;;;;;;;17.60;8.38;;;;;;;7.00;56.79;101086.59;1665058;85;21557;-77
2021/10/26 08:38:18;;;;;;;11.88;8.75;;;;;;;7.08;56.57;101094.19;1665205;85;21076;-79
2021/10/26 08:40:52;;;;;;;10.20;7.58;;;;;;;7.11;56.12;101093.78;1677572;84;21092;-74
2021/10/26 08:43:23;;;;;;;18.20;9.75;;;;;;;7.16;56.13;101080.66;1677774;85;21095;-73
2021/10/26 08:45:51;;;;;;;14.58;8.83;;;;;;;7.22;56.20;101075.88;1662389;86;21136;-75
2021/10/26 08:48:23;;;;;;;9.90;7.95;;;;;;;7.32;56.06;101078.55;1664736;85;21581;-75
2021/10/26 08:51:00;;;;;;;12.00;8.00;;;;;;;7.44;55.45;101073.45;1664682;85;20999;-75
2021/10/26 08:53:32;;;;;;;13.10;8.08;;;;;;;7.56;54.98;101063.05;1627415;86;21565;-76
2021/10/26 08:56:02;;;;;;;12.75;8.95;;;;;;;7.66;54.36;101071.56;1660515;86;21047;-77
2021/10/26 08:58:46;;;;;;;13.98;9.00;;;;;;;7.78;54.02;101092.73;1654278;86;21184;-75
2021/10/26 09:01:15;;;;;;;11.70;8.75;;;;;;;7.82;53.40;101077.91;1678604;84;21538;-74
2021/10/26 09:03:50;;;;;;;12.85;8.20;;;;;;;7.86;53.37;101078.66;1625862;88;21070;-74
2021/10/26 09:06:28;;;;;;;15.78;8.63;;;;;;;7.94;53.29;101066.97;1680209;85;21525;-76
2021/10/26 09:08:56;;;;;;;19.57;8.65;;;;;;;8.01;53.42;101067.02;1662863;86;21114;-75
2021/10/26 09:11:29;;;;;;;10.93;8.00;;;;;;;8.10;53.24;101066.64;1655305;86;21320;-73
2021/10/26 09:17:28;;;;;;;22.22;8.50;;;;;;;8.34;52.64;101055.11;1578491;87;21035;-75
2021/10/26 09:20:18;;;;;;;13.77;9.07;;;;;;;8.45;51.67;101054.50;1635337;86;20992;-84
2021/10/26 09:22:51;;;;;;;14.30;9.58;;;;;;;8.53;51.94;101052.99;1661159;85;20967;-75
2021/10/26 09:25:20;;;;;;;12.10;8.33;;;;;;;8.63;51.72;101048.86;1636062;87;21116;-75
2021/10/26 09:27:49;;;;;;;9.65;8.65;;;;;;;8.68;50.92;101050.96;1639715;86;21069;-76
2021/10/26 09:30:22;;;;;;;10.43;8.13;;;;;;;8.73;50.31;101047.13;1636827;86;21560;-78
2021/10/26 09:32:48;;;;;;;14.70;7.17;;;;;;;8.79;49.60;101038.78;1631828;87;21031;-78
2021/10/26 09:35:17;;;;;;;10.55;7.45;;;;;;;8.80;49.08;101037.75;1612504;87;21585;-79
2021/10/26 09:37:53;;;;;;;11.60;7.50;;;;;;;8.82;48.99;101035.19;1635321;86;21247;-75
2021/10/26 09:40:19;;;;;;;19.35;8.28;;;;;;;8.84;48.43;101031.77;1643442;86;21059;-76
2021/10/26 09:42:51;;;;;;;11.15;7.37;;;;;;;8.85;48.51;101038.80;1630287;87;21042;-74
2021/10/26 09:45:29;;;;;;;6.90;5.87;;;;;;;8.88;48.70;101037.03;1643749;86;21069;-77
2021/10/26 09:47:59;;;;;;;10.80;7.35;;;;;;;8.96;48.49;101030.65;1650904;86;21831;-77
2021/10/26 09:50:33;;;;;;;8.80;7.25;;;;;;;8.98;48.26;101021.34;1700836;84;21122;-76
2021/10/26 09:53:09;;;;;;;11.00;6.97;;;;;;;9.04;48.21;101025.89;1637160;85;20959;-76
2021/10/26 09:55:47;;;;;;;10.08;8.03;;;;;;;9.10;47.88;101013.00;1640069;86;21178;-77
2021/10/26 09:58:21;;;;;;;13.90;8.53;;;;;;;9.14;47.92;101014.74;1637719;86;21066;-72
2021/10/26 10:00:50;;;;;;;11.43;8.05;;;;;;;9.25;47.92;101023.52;1643859;86;21512;-73
2021/10/26 10:03:25;;;;;;;13.72;8.08;;;;;;;9.33;47.31;101006.34;1653200;85;21337;-71
2021/10/26 10:05:58;;;;;;;11.53;7.75;;;;;;;9.35;47.09;101027.12;1645409;87;21014;-72
2021/10/26 10:08:35;;;;;;;8.20;7.05;;;;;;;9.38;47.02;101002.52;1637850;86;21081;-70
2021/10/26 10:11:19;;;;;;;8.63;6.58;;;;;;;9.43;46.98;100989.30;1631228;86;21063;-72
2021/10/26 10:13:54;;;;;;;10.53;8.60;;;;;;;9.47;46.81;100983.29;1659701;86;21104;-73
2021/10/26 10:16:26;;;;;;;10.90;7.83;;;;;;;9.55;46.51;100981.70;1638889;86;21051;-73
2021/10/26 10:18:53;;;;;;;11.73;7.15;;;;;;;9.62;46.49;100976.32;1646248;86;21079;-82
2021/10/26 10:21:24;;;;;;;10.13;7.35;;;;;;;9.66;46.34;100972.69;1660169;86;21024;-82
2021/10/26 10:23:51;;;;;;;12.33;7.37;;;;;;;9.73;46.18;100977.02;1660199;86;21019;-71
2021/10/26 10:26:20;;;;;;;7.05;6.30;;;;;;;9.78;45.74;100964.28;1638088;86;21021;-71
2021/10/26 10:28:48;;;;;;;8.93;6.92;;;;;;;9.79;45.62;100967.25;1652888;86;21189;-74
2021/10/26 10:31:23;;;;;;;11.55;6.25;;;;;;;9.83;45.61;100961.23;1620538;88;21463;-76
2021/10/26 10:33:49;;;;;;;7.25;5.62;;;;;;;9.84;45.11;100949.45;1654242;86;21544;-77
2021/10/26 10:36:18;;;;;;;10.60;7.12;;;;;;;9.84;45.00;100957.52;1646956;86;21586;-74
2021/10/26 10:38:44;;;;;;;14.30;7.12;;;;;;;9.89;45.08;100966.28;1646953;86;21053;-75
2021/10/26 10:41:31;;;;;;;10.08;7.37;;;;;;;9.90;45.16;100946.44;1657060;86;21121;-78
2021/10/26 10:43:58;;;;;;;10.63;7.10;;;;;;;9.95;44.88;100938.03;1656974;85;21621;-77
2021/10/26 10:46:47;;;;;;;12.82;6.70;;;;;;;9.99;44.72;100943.28;1674725;85;22033;-78
2021/10/26 10:49:27;;;;;;;14.35;7.55;;;;;;;10.02;44.18;100928.61;1646834;86;21540;-76
2021/10/26 10:52:13;;;;;;;9.65;5.72;;;;;;;10.11;44.31;100932.69;1621165;85;21032;-80
2021/10/26 10:54:48;;;;;;;8.70;6.53;;;;;;;10.25;44.42;100922.69;1658633;86;21164;-82
2021/10/26 10:57:19;;;;;;;9.78;6.42;;;;;;;10.38;44.59;100916.69;1652190;86;21008;-81
2021/10/26 10:59:54;;;;;;;9.63;6.50;;;;;;;10.52;44.38;100918.75;1688844;84;21025;-85
2021/10/26 11:02:27;;;;;;;7.65;6.47;;;;;;;10.67;44.12;100919.25;1688212;84;20979;-84
2021/10/26 11:04:55;;;;;;;6.47;5.58;;;;;;;10.73;42.70;100917.03;1700670;84;21041;-79
2021/10/26 11:07:47;;;;;;;11.15;5.60;;;;;;;10.82;42.64;100921.61;1662929;86;21164;-81
2021/10/26 11:10:15;;;;;;;9.10;5.05;;;;;;;10.86;41.71;100933.58;1662810;86;21020;-82
2021/10/26 11:12:45;;;;;;;6.03;4.83;;;;;;;10.87;41.29;100915.04;1662201;86;20966;-77
2021/10/26 11:15:21;;;;;;;7.53;4.65;;;;;;;10.92;40.31;100906.60;1639045;86;21046;-73
2021/10/26 11:17:50;;;;;;;10.72;6.53;;;;;;;10.99;40.88;100909.21;1606092;87;21046;-71
2021/10/26 11:20:31;;;;;;;12.95;6.70;;;;;;;11.04;40.77;100903.16;1635398;86;21091;-72
2021/10/26 11:23:03;;;;;;;8.55;6.10;;;;;;;11.03;40.96;100902.33;1613262;86;20994;-77
2021/10/26 11:25:39;;;;;;;8.18;6.85;;;;;;;11.04;40.99;100894.56;1645223;86;21072;-77
2021/10/26 11:28:24;;;;;;;12.78;7.25;;;;;;;11.06;40.87;100900.55;1611734;87;21521;-78
2021/10/26 11:30:52;;;;;;;8.63;6.15;;;;;;;11.07;40.94;100891.44;1659244;85;21203;-75
2021/10/26 11:33:29;;;;;;;9.28;5.65;;;;;;;11.07;41.46;100879.84;1646923;86;21770;-76
2021/10/26 11:36:03;;;;;;;7.67;6.08;;;;;;;11.13;40.74;100884.31;1612052;87;21038;-77